No particular awareness of the weather is required.    There are no Weather-warnings


Meteo18 Weather Cam more information Meteo18 Weather Cam


Thunder radar more information blitzortung!


Rain radar more information rain snow radar


Visit our other weather sites:

Template documentation
and downloads

And another site



Weather Underground History page Text

Daily Summary for October 6, 2017 Units:  Both    English   Metric
« Previous Day
Next Day »
Daily Weekly Monthly Yearly Custom
  High: Low: Average:
Temperature: TemperatureC °F /  -17.8 °C 7.4 °F /  -13.7 °C 10.3 °F /  -12.1 °C
Dew Point: DewpointC °F /  -17.8 °C 5.8 °F /  -14.6 °C 8.2 °F /  -13.2 °C
Humidity: Humidity % 65 % 86 %
Wind Speed: WindSpeedKMH mph /  0 km/h - 3.1 mph /  5 km/h
Wind Gust: WindSpeedGustKMH mph /  0 km/h - -
Wind:- - WSW
Pressure: PressurehPa in /  0 hPa 1022.2 in /  34611.7 hPa -
Precipitation: 0.3 in /  7.62 mm    
Historical Graphs
 
 
Tabular Data for October 6, 2017
Time Temperature Dew Point Pressure Wind Wind Speed Wind Gust Humidity Rainfall Rate (Hourly)
TemperatureC °F /  -17.8 °C DewpointC °F /  -17.8 °C PressurehPa in /  0 hPa Calm     Humidity % HourlyPrecipMM in /  0 mm
00:07 13.4 °F /  -10.3 °C 12.3 °F /  -10.9 °C 1022.2 in /  34611.7 hPa NW 3.2 mph /  5.1 km/h 11.3 mph /  18.2 km/h 93 % 0.0 in /  0 mm
00:12 13.3 °F /  -10.4 °C 12.2 °F /  -11 °C 1022.2 in /  34611.7 hPa NNW 9.7 mph /  15.6 km/h 11.3 mph /  18.2 km/h 93 % 0.0 in /  0 mm
00:17 13.3 °F /  -10.4 °C 12.2 °F /  -11 °C 1022.2 in /  34611.7 hPa NNW 4.8 mph /  7.7 km/h 19.3 mph /  31.1 km/h 93 % 0.0 in /  0 mm
00:22 13.3 °F /  -10.4 °C 12.2 °F /  -11 °C 1022.2 in /  34611.7 hPa NNW 11.3 mph /  18.2 km/h 19.3 mph /  31.1 km/h 93 % 0.0 in /  0 mm
00:32 13.3 °F /  -10.4 °C 12.0 °F /  -11.1 °C 1022.2 in /  34611.7 hPa NNW 3.2 mph /  5.1 km/h 16.1 mph /  25.9 km/h 92 % 0.0 in /  0 mm
00:37 13.2 °F /  -10.4 °C 11.9 °F /  -11.2 °C 1022.2 in /  34611.7 hPa NNW 6.4 mph /  10.3 km/h 14.5 mph /  23.3 km/h 92 % 0.0 in /  0 mm
00:42 13.2 °F /  -10.4 °C 11.9 °F /  -11.2 °C 1022.2 in /  34611.7 hPa NNW 8.0 mph /  12.9 km/h 17.7 mph /  28.5 km/h 92 % 0.0 in /  0 mm
00:47 13.2 °F /  -10.4 °C 11.9 °F /  -11.2 °C 1022.2 in /  34611.7 hPa NNE 8.0 mph /  12.9 km/h 17.7 mph /  28.5 km/h 92 % 0.0 in /  0 mm
00:52 13.1 °F /  -10.5 °C 11.8 °F /  -11.2 °C 1022.2 in /  34611.7 hPa North 6.4 mph /  10.3 km/h 14.5 mph /  23.3 km/h 92 % 0.0 in /  0 mm
00:57 13.1 °F /  -10.5 °C 11.8 °F /  -11.2 °C 1022.2 in /  34611.7 hPa North 8.0 mph /  12.9 km/h 14.5 mph /  23.3 km/h 92 % 0.0 in /  0 mm
01:02 13.1 °F /  -10.5 °C 11.8 °F /  -11.2 °C 1022.2 in /  34611.7 hPa NNW 4.8 mph /  7.7 km/h 14.5 mph /  23.3 km/h 92 % 0.0 in /  0 mm
01:07 13.0 °F /  -10.6 °C 11.7 °F /  -11.3 °C 1022.2 in /  34611.7 hPa NW 4.8 mph /  7.7 km/h 14.5 mph /  23.3 km/h 92 % 0.0 in /  0 mm
01:12 12.9 °F /  -10.6 °C 11.6 °F /  -11.3 °C 1022.2 in /  34611.7 hPa NNW 8.0 mph /  12.9 km/h 14.5 mph /  23.3 km/h 92 % 0.0 in /  0 mm
01:17 12.9 °F /  -10.6 °C 11.6 °F /  -11.3 °C 1022.2 in /  34611.7 hPa NNE 4.8 mph /  7.7 km/h 12.9 mph /  20.8 km/h 92 % 0.0 in /  0 mm
01:22 12.8 °F /  -10.7 °C 11.5 °F /  -11.4 °C 1022.2 in /  34611.7 hPa NNW 1.6 mph /  2.6 km/h 12.9 mph /  20.8 km/h 92 % 0.0 in /  0 mm
01:27 12.7 °F /  -10.7 °C 11.4 °F /  -11.4 °C 1022.2 in /  34611.7 hPa North 3.2 mph /  5.1 km/h 14.5 mph /  23.3 km/h 92 % 0.0 in /  0 mm
01:37 12.6 °F /  -10.8 °C 11.3 °F /  -11.5 °C 1022.6 in /  34625.2 hPa NNW 8.0 mph /  12.9 km/h 14.5 mph /  23.3 km/h 92 % 0.0 in /  0 mm
01:42 12.5 °F /  -10.8 °C 11.4 °F /  -11.4 °C 1022.6 in /  34625.2 hPa WNW 1.6 mph /  2.6 km/h 9.7 mph /  15.6 km/h 93 % 0.0 in /  0 mm
01:47 12.5 °F /  -10.8 °C 11.4 °F /  -11.4 °C 1022.6 in /  34625.2 hPa WNW 1.6 mph /  2.6 km/h 12.9 mph /  20.8 km/h 93 % 0.0 in /  0 mm
01:52 12.4 °F /  -10.9 °C 11.3 °F /  -11.5 °C 1022.6 in /  34625.2 hPa NNW 3.2 mph /  5.1 km/h 12.9 mph /  20.8 km/h 93 % 0.0 in /  0 mm
01:57 12.4 °F /  -10.9 °C 11.3 °F /  -11.5 °C 1022.9 in /  34635.4 hPa North 9.7 mph /  15.6 km/h 11.3 mph /  18.2 km/h 93 % 0.0 in /  0 mm
02:12 12.2 °F /  -11 °C 10.8 °F /  -11.8 °C 1022.6 in /  34625.2 hPa North 14.5 mph /  23.3 km/h 19.3 mph /  31.1 km/h 91 % 0.0 in /  0 mm
02:22 12.0 °F /  -11.1 °C 10.6 °F /  -11.9 °C 1022.6 in /  34625.2 hPa NNW 11.3 mph /  18.2 km/h 19.3 mph /  31.1 km/h 91 % 0.0 in /  0 mm
02:27 11.9 °F /  -11.2 °C 10.5 °F /  -11.9 °C 1022.9 in /  34635.4 hPa NE 6.4 mph /  10.3 km/h 19.3 mph /  31.1 km/h 91 % 0.0 in /  0 mm
02:32 11.8 °F /  -11.2 °C 10.5 °F /  -11.9 °C 1022.9 in /  34635.4 hPa NNW 6.4 mph /  10.3 km/h 20.9 mph /  33.6 km/h 92 % 0.0 in /  0 mm
02:42 11.6 °F /  -11.3 °C 10.3 °F /  -12.1 °C 1022.9 in /  34635.4 hPa North 6.4 mph /  10.3 km/h 20.9 mph /  33.6 km/h 92 % 0.0 in /  0 mm
02:52 11.4 °F /  -11.4 °C 10.1 °F /  -12.2 °C 1022.9 in /  34635.4 hPa NE 3.2 mph /  5.1 km/h 14.5 mph /  23.3 km/h 92 % 0.0 in /  0 mm
02:57 11.3 °F /  -11.5 °C 10.2 °F /  -12.1 °C 1022.9 in /  34635.4 hPa NNE 4.8 mph /  7.7 km/h 14.5 mph /  23.3 km/h 93 % 0.0 in /  0 mm
03:02 11.3 °F /  -11.5 °C 10.2 °F /  -12.1 °C 1022.9 in /  34635.4 hPa NE 1.6 mph /  2.6 km/h 11.3 mph /  18.2 km/h 93 % 0.0 in /  0 mm
03:12 11.3 °F /  -11.5 °C 10.2 °F /  -12.1 °C 1022.9 in /  34635.4 hPa NE 8.0 mph /  12.9 km/h 16.1 mph /  25.9 km/h 93 % 0.0 in /  0 mm
03:17 11.3 °F /  -11.5 °C 10.2 °F /  -12.1 °C 1022.9 in /  34635.4 hPa NE 9.7 mph /  15.6 km/h 16.1 mph /  25.9 km/h 93 % 0.0 in /  0 mm
03:22 11.3 °F /  -11.5 °C 10.2 °F /  -12.1 °C 1022.9 in /  34635.4 hPa NE 3.2 mph /  5.1 km/h 16.1 mph /  25.9 km/h 93 % 0.0 in /  0 mm
03:27 11.3 °F /  -11.5 °C 10.2 °F /  -12.1 °C 1023.2 in /  34645.6 hPa NE 1.6 mph /  2.6 km/h 12.9 mph /  20.8 km/h 93 % 0.0 in /  0 mm
03:32 11.3 °F /  -11.5 °C 10.2 °F /  -12.1 °C 1023.2 in /  34645.6 hPa NE 4.8 mph /  7.7 km/h 12.9 mph /  20.8 km/h 93 % 0.0 in /  0 mm
03:37 11.2 °F /  -11.6 °C 10.1 °F /  -12.2 °C 1023.2 in /  34645.6 hPa NNW 1.6 mph /  2.6 km/h 9.7 mph /  15.6 km/h 93 % 0.0 in /  0 mm
03:42 11.0 °F /  -11.7 °C 9.9 °F /  -12.3 °C 1022.9 in /  34635.4 hPa NW 1.6 mph /  2.6 km/h 8.0 mph /  12.9 km/h 93 % 0.0 in /  0 mm
03:52 10.8 °F /  -11.8 °C 9.7 °F /  -12.4 °C 1023.2 in /  34645.6 hPa NNE 8.0 mph /  12.9 km/h 11.3 mph /  18.2 km/h 93 % 0.0 in /  0 mm
03:57 10.8 °F /  -11.8 °C 9.7 °F /  -12.4 °C 1023.2 in /  34645.6 hPa NE 6.4 mph /  10.3 km/h 14.5 mph /  23.3 km/h 93 % 0.0 in /  0 mm
04:02 10.7 °F /  -11.8 °C 9.6 °F /  -12.4 °C 1023.2 in /  34645.6 hPa Calm   14.5 mph /  23.3 km/h 93 % 0.0 in /  0 mm
04:07 10.6 °F /  -11.9 °C 9.5 °F /  -12.5 °C 1023.2 in /  34645.6 hPa NNW 3.2 mph /  5.1 km/h 14.5 mph /  23.3 km/h 93 % 0.0 in /  0 mm
04:12 10.6 °F /  -11.9 °C 9.5 °F /  -12.5 °C 1023.2 in /  34645.6 hPa NNE 3.2 mph /  5.1 km/h 9.7 mph /  15.6 km/h 93 % 0.0 in /  0 mm
04:17 10.4 °F /  -12 °C 9.3 °F /  -12.6 °C 1023.2 in /  34645.6 hPa Calm   8.0 mph /  12.9 km/h 93 % 0.0 in /  0 mm
04:22 10.2 °F /  -12.1 °C 9.1 °F /  -12.7 °C 1023.2 in /  34645.6 hPa Calm   6.4 mph /  10.3 km/h 93 % 0.0 in /  0 mm
04:27 10.1 °F /  -12.2 °C 9.0 °F /  -12.8 °C 1023.2 in /  34645.6 hPa Calm   3.2 mph /  5.1 km/h 93 % 0.0 in /  0 mm
04:32 9.9 °F /  -12.3 °C 9.0 °F /  -12.8 °C 1023.2 in /  34645.6 hPa Calm   1.6 mph /  2.6 km/h 94 % 0.0 in /  0 mm
04:42 9.7 °F /  -12.4 °C 8.8 °F /  -12.9 °C 1023.2 in /  34645.6 hPa Calm     94 % 0.0 in /  0 mm
04:47 9.6 °F /  -12.4 °C 8.7 °F /  -12.9 °C 1023.2 in /  34645.6 hPa Calm   1.6 mph /  2.6 km/h 94 % 0.0 in /  0 mm
04:52 9.4 °F /  -12.6 °C 8.5 °F /  -13.1 °C 1023.2 in /  34645.6 hPa Calm   1.6 mph /  2.6 km/h 94 % 0.0 in /  0 mm
04:57 9.2 °F /  -12.7 °C 8.3 °F /  -13.2 °C 1023.2 in /  34645.6 hPa Calm   1.6 mph /  2.6 km/h 94 % 0.0 in /  0 mm
05:02 9.1 °F /  -12.7 °C 8.2 °F /  -13.2 °C 1023.2 in /  34645.6 hPa Calm   1.6 mph /  2.6 km/h 94 % 0.0 in /  0 mm
05:07 9.0 °F /  -12.8 °C 8.2 °F /  -13.2 °C 1023.2 in /  34645.6 hPa Calm     95 % 0.0 in /  0 mm
05:12 8.9 °F /  -12.8 °C 8.1 °F /  -13.3 °C 1023.2 in /  34645.6 hPa Calm   3.2 mph /  5.1 km/h 95 % 0.0 in /  0 mm
05:17 8.8 °F /  -12.9 °C 8.0 °F /  -13.3 °C 1023.2 in /  34645.6 hPa Calm   3.2 mph /  5.1 km/h 95 % 0.0 in /  0 mm
05:27 8.6 °F /  -13 °C 7.8 °F /  -13.4 °C 1023.2 in /  34645.6 hPa WNW 3.2 mph /  5.1 km/h 3.2 mph /  5.1 km/h 95 % 0.0 in /  0 mm
05:37 8.4 °F /  -13.1 °C 7.6 °F /  -13.6 °C 1023.2 in /  34645.6 hPa Calm   3.2 mph /  5.1 km/h 95 % 0.0 in /  0 mm
05:52 8.4 °F /  -13.1 °C 7.8 °F /  -13.4 °C 1023.2 in /  34645.6 hPa Calm   4.8 mph /  7.7 km/h 96 % 0.0 in /  0 mm
05:57 8.4 °F /  -13.1 °C 7.8 °F /  -13.4 °C 1023.6 in /  34659.1 hPa Calm   6.4 mph /  10.3 km/h 96 % 0.0 in /  0 mm
06:02 8.4 °F /  -13.1 °C 7.8 °F /  -13.4 °C 1023.2 in /  34645.6 hPa NNW 1.6 mph /  2.6 km/h 6.4 mph /  10.3 km/h 96 % 0.0 in /  0 mm
06:12 8.3 °F /  -13.2 °C 7.7 °F /  -13.5 °C 1023.2 in /  34645.6 hPa Calm   3.2 mph /  5.1 km/h 96 % 0.0 in /  0 mm
06:17 8.3 °F /  -13.2 °C 7.7 °F /  -13.5 °C 1023.6 in /  34659.1 hPa NW 1.6 mph /  2.6 km/h 3.2 mph /  5.1 km/h 96 % 0.0 in /  0 mm
06:22 8.4 °F /  -13.1 °C 7.8 °F /  -13.4 °C 1023.6 in /  34659.1 hPa Calm   3.2 mph /  5.1 km/h 96 % 0.3 in /  7.62 mm
06:32 8.3 °F /  -13.2 °C 7.7 °F /  -13.5 °C 1023.6 in /  34659.1 hPa Calm   3.2 mph /  5.1 km/h 96 % 0.3 in /  7.62 mm
06:37 8.3 °F /  -13.2 °C 7.7 °F /  -13.5 °C 1023.6 in /  34659.1 hPa NNW 3.2 mph /  5.1 km/h 4.8 mph /  7.7 km/h 96 % 0.3 in /  7.62 mm
06:42 8.4 °F /  -13.1 °C 7.8 °F /  -13.4 °C 1023.6 in /  34659.1 hPa Calm   4.8 mph /  7.7 km/h 96 % 0.3 in /  7.62 mm
06:47 8.3 °F /  -13.2 °C 7.7 °F /  -13.5 °C 1023.6 in /  34659.1 hPa Calm   3.2 mph /  5.1 km/h 96 % 0.3 in /  7.62 mm
06:52 8.2 °F /  -13.2 °C 7.6 °F /  -13.6 °C 1023.6 in /  34659.1 hPa NNW 1.6 mph /  2.6 km/h 3.2 mph /  5.1 km/h 96 % 0.3 in /  7.62 mm
07:02 8.1 °F /  -13.3 °C 7.5 °F /  -13.6 °C 1023.6 in /  34659.1 hPa WNW 6.4 mph /  10.3 km/h 6.4 mph /  10.3 km/h 96 % 0.3 in /  7.62 mm
07:12 8.2 °F /  -13.2 °C 7.6 °F /  -13.6 °C 1023.9 in /  34669.3 hPa NW 1.6 mph /  2.6 km/h 8.0 mph /  12.9 km/h 96 % 0.3 in /  7.62 mm
07:17 8.2 °F /  -13.2 °C 7.6 °F /  -13.6 °C 1023.9 in /  34669.3 hPa Calm   9.7 mph /  15.6 km/h 96 % 0.3 in /  7.62 mm
07:22 8.2 °F /  -13.2 °C 7.6 °F /  -13.6 °C 1023.9 in /  34669.3 hPa NNW 1.6 mph /  2.6 km/h 9.7 mph /  15.6 km/h 96 % 0.0 in /  0 mm
07:32 8.2 °F /  -13.2 °C 7.6 °F /  -13.6 °C 1023.9 in /  34669.3 hPa North 3.2 mph /  5.1 km/h 8.0 mph /  12.9 km/h 96 % 0.0 in /  0 mm
07:37 8.2 °F /  -13.2 °C 7.6 °F /  -13.6 °C 1023.9 in /  34669.3 hPa NNW 1.6 mph /  2.6 km/h 8.0 mph /  12.9 km/h 96 % 0.0 in /  0 mm
07:42 8.1 °F /  -13.3 °C 7.5 °F /  -13.6 °C 1023.9 in /  34669.3 hPa Calm   9.7 mph /  15.6 km/h 96 % 0.0 in /  0 mm
07:52 7.9 °F /  -13.4 °C 7.3 °F /  -13.7 °C 1023.9 in /  34669.3 hPa North 1.6 mph /  2.6 km/h 4.8 mph /  7.7 km/h 96 % 0.0 in /  0 mm
07:57 7.8 °F /  -13.4 °C 7.2 °F /  -13.8 °C 1024.3 in /  34682.8 hPa NE 1.6 mph /  2.6 km/h 4.8 mph /  7.7 km/h 96 % 0.0 in /  0 mm
08:02 7.7 °F /  -13.5 °C 7.1 °F /  -13.8 °C 1024.3 in /  34682.8 hPa NNE 3.2 mph /  5.1 km/h 6.4 mph /  10.3 km/h 96 % 0.0 in /  0 mm
08:07 7.6 °F /  -13.6 °C 7.0 °F /  -13.9 °C 1024.3 in /  34682.8 hPa NNW 1.6 mph /  2.6 km/h 6.4 mph /  10.3 km/h 96 % 0.0 in /  0 mm
08:12 7.6 °F /  -13.6 °C 7.0 °F /  -13.9 °C 1024.3 in /  34682.8 hPa NW 1.6 mph /  2.6 km/h 6.4 mph /  10.3 km/h 96 % 0.0 in /  0 mm
08:17 7.6 °F /  -13.6 °C 7.0 °F /  -13.9 °C 1024.3 in /  34682.8 hPa NNE 3.2 mph /  5.1 km/h 6.4 mph /  10.3 km/h 96 % 0.0 in /  0 mm
08:22 7.6 °F /  -13.6 °C 7.0 °F /  -13.9 °C 1024.6 in /  34693 hPa NNW 4.8 mph /  7.7 km/h 6.4 mph /  10.3 km/h 96 % 0.0 in /  0 mm
08:32 7.8 °F /  -13.4 °C 7.2 °F /  -13.8 °C 1024.6 in /  34693 hPa WNW 1.6 mph /  2.6 km/h 4.8 mph /  7.7 km/h 96 % 0.0 in /  0 mm
08:37 8.0 °F /  -13.3 °C 7.6 °F /  -13.6 °C 1024.6 in /  34693 hPa NW 4.8 mph /  7.7 km/h 6.4 mph /  10.3 km/h 97 % 0.0 in /  0 mm
08:42 8.1 °F /  -13.3 °C 7.5 °F /  -13.6 °C 1024.6 in /  34693 hPa NW 4.8 mph /  7.7 km/h 12.9 mph /  20.8 km/h 96 % 0.0 in /  0 mm
08:47 8.2 °F /  -13.2 °C 7.6 °F /  -13.6 °C 1024.6 in /  34693 hPa NW 4.8 mph /  7.7 km/h 14.5 mph /  23.3 km/h 96 % 0.0 in /  0 mm
08:52 8.1 °F /  -13.3 °C 7.5 °F /  -13.6 °C 1024.6 in /  34693 hPa NNW 4.8 mph /  7.7 km/h 14.5 mph /  23.3 km/h 96 % 0.0 in /  0 mm
08:57 8.2 °F /  -13.2 °C 7.6 °F /  -13.6 °C 1024.6 in /  34693 hPa NW 1.6 mph /  2.6 km/h 14.5 mph /  23.3 km/h 96 % 0.0 in /  0 mm
09:02 8.3 °F /  -13.2 °C 7.7 °F /  -13.5 °C 1024.6 in /  34693 hPa NNW 3.2 mph /  5.1 km/h 12.9 mph /  20.8 km/h 96 % 0.0 in /  0 mm
09:07 8.5 °F /  -13.1 °C 7.7 °F /  -13.5 °C 1024.9 in /  34703.1 hPa WNW 3.2 mph /  5.1 km/h 9.7 mph /  15.6 km/h 95 % 0.0 in /  0 mm
09:12 8.6 °F /  -13 °C 7.8 °F /  -13.4 °C 1024.9 in /  34703.1 hPa NW 3.2 mph /  5.1 km/h 9.7 mph /  15.6 km/h 95 % 0.0 in /  0 mm
09:22 8.7 °F /  -12.9 °C 7.8 °F /  -13.4 °C 1024.9 in /  34703.1 hPa NNW 1.6 mph /  2.6 km/h 9.7 mph /  15.6 km/h 94 % 0.0 in /  0 mm
09:32 9.1 °F /  -12.7 °C 8.2 °F /  -13.2 °C 1024.9 in /  34703.1 hPa NNW 1.6 mph /  2.6 km/h 9.7 mph /  15.6 km/h 94 % 0.0 in /  0 mm
09:37 9.2 °F /  -12.7 °C 8.1 °F /  -13.3 °C 1024.9 in /  34703.1 hPa North 3.2 mph /  5.1 km/h 8.0 mph /  12.9 km/h 93 % 0.0 in /  0 mm
09:47 9.6 °F /  -12.4 °C 8.5 °F /  -13.1 °C 1024.9 in /  34703.1 hPa NW 1.6 mph /  2.6 km/h 6.4 mph /  10.3 km/h 93 % 0.0 in /  0 mm
09:52 9.8 °F /  -12.3 °C 8.6 °F /  -13 °C 1024.9 in /  34703.1 hPa NNW 1.6 mph /  2.6 km/h 6.4 mph /  10.3 km/h 92 % 0.0 in /  0 mm
09:57 10.0 °F /  -12.2 °C 8.6 °F /  -13 °C 1024.9 in /  34703.1 hPa NNW 6.4 mph /  10.3 km/h 8.0 mph /  12.9 km/h 91 % 0.0 in /  0 mm
10:02 10.2 °F /  -12.1 °C 8.6 °F /  -13 °C 1025.3 in /  34716.7 hPa NNW 1.6 mph /  2.6 km/h 9.7 mph /  15.6 km/h 90 % 0.0 in /  0 mm
10:07 10.4 °F /  -12 °C 8.5 °F /  -13.1 °C 1025.3 in /  34716.7 hPa NNW 1.6 mph /  2.6 km/h 9.7 mph /  15.6 km/h 88 % 0.0 in /  0 mm
10:12 10.6 °F /  -11.9 °C 8.5 °F /  -13.1 °C 1025.3 in /  34716.7 hPa WNW 3.2 mph /  5.1 km/h 9.7 mph /  15.6 km/h 87 % 0.0 in /  0 mm
10:17 10.8 °F /  -11.8 °C 8.7 °F /  -12.9 °C 1025.3 in /  34716.7 hPa Calm   9.7 mph /  15.6 km/h 87 % 0.0 in /  0 mm
10:22 11.2 °F /  -11.6 °C 8.9 °F /  -12.8 °C 1025.3 in /  34716.7 hPa Calm   9.7 mph /  15.6 km/h 86 % 0.0 in /  0 mm
10:27 11.5 °F /  -11.4 °C 9.1 °F /  -12.7 °C 1025.3 in /  34716.7 hPa WNW 1.6 mph /  2.6 km/h 9.7 mph /  15.6 km/h 85 % 0.0 in /  0 mm
10:32 11.7 °F /  -11.3 °C 8.9 °F /  -12.8 °C 1025.3 in /  34716.7 hPa West 3.2 mph /  5.1 km/h 4.8 mph /  7.7 km/h 83 % 0.0 in /  0 mm
10:37 11.8 °F /  -11.2 °C 8.8 °F /  -12.9 °C 1025.3 in /  34716.7 hPa Calm   4.8 mph /  7.7 km/h 82 % 0.0 in /  0 mm
10:42 12.1 °F /  -11.1 °C 8.8 °F /  -12.9 °C 1025.3 in /  34716.7 hPa NNW 3.2 mph /  5.1 km/h 8.0 mph /  12.9 km/h 80 % 0.0 in /  0 mm
10:47 12.3 °F /  -10.9 °C 8.6 °F /  -13 °C 1025.3 in /  34716.7 hPa NNW 4.8 mph /  7.7 km/h 8.0 mph /  12.9 km/h 78 % 0.0 in /  0 mm
10:52 12.3 °F /  -10.9 °C 8.4 °F /  -13.1 °C 1025.3 in /  34716.7 hPa West 4.8 mph /  7.7 km/h 14.5 mph /  23.3 km/h 77 % 0.0 in /  0 mm
10:57 12.4 °F /  -10.9 °C 8.3 °F /  -13.2 °C 1025.6 in /  34726.8 hPa NNW 8.0 mph /  12.9 km/h 14.5 mph /  23.3 km/h 76 % 0.0 in /  0 mm
11:02 12.4 °F /  -10.9 °C 8.5 °F /  -13.1 °C 1025.6 in /  34726.8 hPa WNW 1.6 mph /  2.6 km/h 14.5 mph /  23.3 km/h 77 % 0.0 in /  0 mm
11:07 12.4 °F /  -10.9 °C 8.3 °F /  -13.2 °C 1025.6 in /  34726.8 hPa West 1.6 mph /  2.6 km/h 14.5 mph /  23.3 km/h 76 % 0.0 in /  0 mm
11:12 12.6 °F /  -10.8 °C 8.5 °F /  -13.1 °C 1026.0 in /  34740.4 hPa NNW 6.4 mph /  10.3 km/h 14.5 mph /  23.3 km/h 76 % 0.0 in /  0 mm
11:17 12.6 °F /  -10.8 °C 8.7 °F /  -12.9 °C 1025.6 in /  34726.8 hPa NW 6.4 mph /  10.3 km/h 14.5 mph /  23.3 km/h 77 % 0.0 in /  0 mm
11:22 12.7 °F /  -10.7 °C 8.6 °F /  -13 °C 1026.0 in /  34740.4 hPa NNW 8.0 mph /  12.9 km/h 14.5 mph /  23.3 km/h 76 % 0.0 in /  0 mm
11:32 12.9 °F /  -10.6 °C 8.8 °F /  -12.9 °C 1026.0 in /  34740.4 hPa North 8.0 mph /  12.9 km/h 16.1 mph /  25.9 km/h 76 % 0.0 in /  0 mm
11:37 13.0 °F /  -10.6 °C 8.9 °F /  -12.8 °C 1026.0 in /  34740.4 hPa WNW 6.4 mph /  10.3 km/h 16.1 mph /  25.9 km/h 76 % 0.0 in /  0 mm
11:42 13.1 °F /  -10.5 °C 8.2 °F /  -13.2 °C 1026.0 in /  34740.4 hPa NNW 6.4 mph /  10.3 km/h 16.1 mph /  25.9 km/h 72 % 0.0 in /  0 mm
11:47 13.1 °F /  -10.5 °C 8.4 °F /  -13.1 °C 1026.0 in /  34740.4 hPa NNW 4.8 mph /  7.7 km/h 16.1 mph /  25.9 km/h 73 % 0.0 in /  0 mm
12:02 13.4 °F /  -10.3 °C 8.7 °F /  -12.9 °C 1026.0 in /  34740.4 hPa North 8.0 mph /  12.9 km/h 14.5 mph /  23.3 km/h 73 % 0.0 in /  0 mm
12:12 13.4 °F /  -10.3 °C 7.6 °F /  -13.6 °C 1026.0 in /  34740.4 hPa NNW 9.7 mph /  15.6 km/h 14.5 mph /  23.3 km/h 68 % 0.0 in /  0 mm
12:17 13.3 °F /  -10.4 °C 7.3 °F /  -13.7 °C 1026.0 in /  34740.4 hPa NNW 6.4 mph /  10.3 km/h 14.5 mph /  23.3 km/h 67 % 0.0 in /  0 mm
12:22 13.1 °F /  -10.5 °C 6.9 °F /  -13.9 °C 1026.0 in /  34740.4 hPa WNW 9.7 mph /  15.6 km/h 24.1 mph /  38.8 km/h 66 % 0.0 in /  0 mm
12:27 13.0 °F /  -10.6 °C 7.7 °F /  -13.5 °C 1026.0 in /  34740.4 hPa NW 12.9 mph /  20.8 km/h 24.1 mph /  38.8 km/h 70 % 0.0 in /  0 mm
12:32 13.0 °F /  -10.6 °C 8.1 °F /  -13.3 °C 1026.0 in /  34740.4 hPa North 4.8 mph /  7.7 km/h 24.1 mph /  38.8 km/h 72 % 0.0 in /  0 mm
12:42 13.4 °F /  -10.3 °C 7.8 °F /  -13.4 °C 1026.0 in /  34740.4 hPa NNW 1.6 mph /  2.6 km/h 22.5 mph /  36.2 km/h 69 % 0.0 in /  0 mm
12:47 13.7 °F /  -10.2 °C 8.1 °F /  -13.3 °C 1026.3 in /  34750.5 hPa NNE 8.0 mph /  12.9 km/h 22.5 mph /  36.2 km/h 69 % 0.0 in /  0 mm
12:52 13.6 °F /  -10.2 °C 8.4 °F /  -13.1 °C 1026.3 in /  34750.5 hPa NW 11.3 mph /  18.2 km/h 22.5 mph /  36.2 km/h 71 % 0.0 in /  0 mm
12:57 13.4 °F /  -10.3 °C 8.0 °F /  -13.3 °C 1026.3 in /  34750.5 hPa NNW 14.5 mph /  23.3 km/h 20.9 mph /  33.6 km/h 70 % 0.0 in /  0 mm
13:02 13.3 °F /  -10.4 °C 7.3 °F /  -13.7 °C 1026.3 in /  34750.5 hPa WNW 8.0 mph /  12.9 km/h 20.9 mph /  33.6 km/h 67 % 0.0 in /  0 mm
13:07 13.6 °F /  -10.2 °C 7.8 °F /  -13.4 °C 1026.3 in /  34750.5 hPa WNW 6.4 mph /  10.3 km/h 24.1 mph /  38.8 km/h 68 % 0.0 in /  0 mm
13:12 13.7 °F /  -10.2 °C 7.7 °F /  -13.5 °C 1026.3 in /  34750.5 hPa NW 9.7 mph /  15.6 km/h 24.1 mph /  38.8 km/h 67 % 0.0 in /  0 mm
13:17 13.4 °F /  -10.3 °C 7.2 °F /  -13.8 °C 1026.3 in /  34750.5 hPa NNW 14.5 mph /  23.3 km/h 24.1 mph /  38.8 km/h 66 % 0.0 in /  0 mm
13:22 13.2 °F /  -10.4 °C 7.4 °F /  -13.7 °C 1026.3 in /  34750.5 hPa North 4.8 mph /  7.7 km/h 24.1 mph /  38.8 km/h 68 % 0.0 in /  0 mm
13:32 13.3 °F /  -10.4 °C 7.5 °F /  -13.6 °C 1026.3 in /  34750.5 hPa WNW 9.7 mph /  15.6 km/h 24.1 mph /  38.8 km/h 68 % 0.0 in /  0 mm
13:37 13.4 °F /  -10.3 °C 7.8 °F /  -13.4 °C 1026.3 in /  34750.5 hPa NNW 11.3 mph /  18.2 km/h 19.3 mph /  31.1 km/h 69 % 0.0 in /  0 mm
13:42 13.6 °F /  -10.2 °C 7.8 °F /  -13.4 °C 1026.3 in /  34750.5 hPa NW 9.7 mph /  15.6 km/h 19.3 mph /  31.1 km/h 68 % 0.0 in /  0 mm
18:17 13.6 °F /  -10.2 °C 7.1 °F /  -13.8 °C 1026.3 in /  34750.5 hPa NNW 3.2 mph /  5.1 km/h 14.5 mph /  23.3 km/h 65 % 0.0 in /  0 mm
18:27 13.3 °F /  -10.4 °C 7.3 °F /  -13.7 °C 1026.6 in /  34760.7 hPa NNW 4.8 mph /  7.7 km/h 12.9 mph /  20.8 km/h 67 % 0.0 in /  0 mm
18:32 13.2 °F /  -10.4 °C 7.2 °F /  -13.8 °C 1026.6 in /  34760.7 hPa NNW 1.6 mph /  2.6 km/h 12.9 mph /  20.8 km/h 67 % 0.0 in /  0 mm
18:42 12.8 °F /  -10.7 °C 7.5 °F /  -13.6 °C 1026.6 in /  34760.7 hPa NNE 4.8 mph /  7.7 km/h 11.3 mph /  18.2 km/h 70 % 0.0 in /  0 mm
18:47 12.7 °F /  -10.7 °C 7.6 °F /  -13.6 °C 1026.6 in /  34760.7 hPa North 1.6 mph /  2.6 km/h 8.0 mph /  12.9 km/h 71 % 0.0 in /  0 mm
18:52 12.5 °F /  -10.8 °C 7.6 °F /  -13.6 °C 1026.6 in /  34760.7 hPa NNE 3.2 mph /  5.1 km/h 6.4 mph /  10.3 km/h 72 % 0.0 in /  0 mm
18:57 12.5 °F /  -10.8 °C 7.6 °F /  -13.6 °C 1026.6 in /  34760.7 hPa NE 3.2 mph /  5.1 km/h 6.4 mph /  10.3 km/h 72 % 0.0 in /  0 mm
19:02 12.4 °F /  -10.9 °C 7.5 °F /  -13.6 °C 1027.0 in /  34774.2 hPa NNE 3.2 mph /  5.1 km/h 6.4 mph /  10.3 km/h 72 % 0.0 in /  0 mm
19:07 12.2 °F /  -11 °C 7.5 °F /  -13.6 °C 1027.0 in /  34774.2 hPa NE 1.6 mph /  2.6 km/h 6.4 mph /  10.3 km/h 73 % 0.0 in /  0 mm
19:12 12.1 °F /  -11.1 °C 7.4 °F /  -13.7 °C 1027.0 in /  34774.2 hPa NNE 1.6 mph /  2.6 km/h 6.4 mph /  10.3 km/h 73 % 0.0 in /  0 mm
19:17 12.0 °F /  -11.1 °C 7.5 °F /  -13.6 °C 1027.0 in /  34774.2 hPa NNE 1.6 mph /  2.6 km/h 9.7 mph /  15.6 km/h 74 % 0.0 in /  0 mm
19:22 11.7 °F /  -11.3 °C 7.2 °F /  -13.8 °C 1027.0 in /  34774.2 hPa Calm   9.7 mph /  15.6 km/h 74 % 0.0 in /  0 mm
19:27 11.5 °F /  -11.4 °C 7.4 °F /  -13.7 °C 1027.0 in /  34774.2 hPa Calm   9.7 mph /  15.6 km/h 76 % 0.0 in /  0 mm
19:32 11.3 °F /  -11.5 °C 7.2 °F /  -13.8 °C 1027.3 in /  34784.4 hPa Calm   4.8 mph /  7.7 km/h 76 % 0.0 in /  0 mm
19:37 11.0 °F /  -11.7 °C 7.1 °F /  -13.8 °C 1027.3 in /  34784.4 hPa Calm   3.2 mph /  5.1 km/h 77 % 0.0 in /  0 mm
19:42 10.8 °F /  -11.8 °C 7.3 °F /  -13.7 °C 1027.3 in /  34784.4 hPa Calm   1.6 mph /  2.6 km/h 79 % 0.0 in /  0 mm
19:47 10.5 °F /  -11.9 °C 7.2 °F /  -13.8 °C 1027.3 in /  34784.4 hPa Calm   1.6 mph /  2.6 km/h 80 % 0.0 in /  0 mm
19:52 10.3 °F /  -12.1 °C 7.0 °F /  -13.9 °C 1027.7 in /  34797.9 hPa Calm   1.6 mph /  2.6 km/h 80 % 0.0 in /  0 mm
19:57 10.2 °F /  -12.1 °C 7.1 °F /  -13.8 °C 1027.7 in /  34797.9 hPa Calm     81 % 0.0 in /  0 mm
20:02 10.1 °F /  -12.2 °C 7.0 °F /  -13.9 °C 1027.7 in /  34797.9 hPa Calm   1.6 mph /  2.6 km/h 81 % 0.0 in /  0 mm
20:07 10.0 °F /  -12.2 °C 7.1 °F /  -13.8 °C 1027.7 in /  34797.9 hPa Calm   1.6 mph /  2.6 km/h 82 % 0.0 in /  0 mm
20:12 9.8 °F /  -12.3 °C 6.9 °F /  -13.9 °C 1027.7 in /  34797.9 hPa Calm   1.6 mph /  2.6 km/h 82 % 0.0 in /  0 mm
20:17 9.6 °F /  -12.4 °C 6.7 °F /  -14.1 °C 1027.7 in /  34797.9 hPa Calm   1.6 mph /  2.6 km/h 82 % 0.0 in /  0 mm
20:22 9.5 °F /  -12.5 °C 6.8 °F /  -14 °C 1027.7 in /  34797.9 hPa Calm   1.6 mph /  2.6 km/h 83 % 0.0 in /  0 mm
20:32 9.2 °F /  -12.7 °C 6.6 °F /  -14.1 °C 1027.7 in /  34797.9 hPa Calm   1.6 mph /  2.6 km/h 84 % 0.0 in /  0 mm
20:37 9.2 °F /  -12.7 °C 6.6 °F /  -14.1 °C 1027.7 in /  34797.9 hPa Calm   1.6 mph /  2.6 km/h 84 % 0.0 in /  0 mm
20:47 8.8 °F /  -12.9 °C 6.4 °F /  -14.2 °C 1027.7 in /  34797.9 hPa WNW 1.6 mph /  2.6 km/h 3.2 mph /  5.1 km/h 85 % 0.0 in /  0 mm
20:52 8.6 °F /  -13 °C 6.4 °F /  -14.2 °C 1027.7 in /  34797.9 hPa WNW 1.6 mph /  2.6 km/h 3.2 mph /  5.1 km/h 86 % 0.0 in /  0 mm
20:57 8.4 °F /  -13.1 °C 6.4 °F /  -14.2 °C 1027.7 in /  34797.9 hPa Calm   3.2 mph /  5.1 km/h 87 % 0.0 in /  0 mm
21:02 8.2 °F /  -13.2 °C 6.3 °F /  -14.3 °C 1027.7 in /  34797.9 hPa Calm   3.2 mph /  5.1 km/h 88 % 0.0 in /  0 mm
21:07 8.0 °F /  -13.3 °C 6.3 °F /  -14.3 °C 1027.7 in /  34797.9 hPa WNW 1.6 mph /  2.6 km/h 3.2 mph /  5.1 km/h 89 % 0.0 in /  0 mm
21:12 7.9 °F /  -13.4 °C 6.4 °F /  -14.2 °C 1027.7 in /  34797.9 hPa WNW 1.6 mph /  2.6 km/h 3.2 mph /  5.1 km/h 90 % 0.0 in /  0 mm
21:17 7.9 °F /  -13.4 °C 6.4 °F /  -14.2 °C 1028.0 in /  34808.1 hPa WNW 1.6 mph /  2.6 km/h 3.2 mph /  5.1 km/h 90 % 0.0 in /  0 mm
21:22 7.9 °F /  -13.4 °C 6.4 °F /  -14.2 °C 1027.7 in /  34797.9 hPa WNW 1.6 mph /  2.6 km/h 3.2 mph /  5.1 km/h 90 % 0.0 in /  0 mm
21:32 7.9 °F /  -13.4 °C 6.2 °F /  -14.3 °C 1027.7 in /  34797.9 hPa Calm   1.6 mph /  2.6 km/h 89 % 0.0 in /  0 mm
21:37 7.8 °F /  -13.4 °C 6.3 °F /  -14.3 °C 1027.7 in /  34797.9 hPa Calm   1.6 mph /  2.6 km/h 90 % 0.0 in /  0 mm
21:42 7.7 °F /  -13.5 °C 6.2 °F /  -14.3 °C 1027.7 in /  34797.9 hPa Calm   1.6 mph /  2.6 km/h 90 % 0.0 in /  0 mm
21:47 7.8 °F /  -13.4 °C 6.4 °F /  -14.2 °C 1028.0 in /  34808.1 hPa NNW 1.6 mph /  2.6 km/h 1.6 mph /  2.6 km/h 91 % 0.0 in /  0 mm
21:52 8.2 °F /  -13.2 °C 6.7 °F /  -14.1 °C 1027.7 in /  34797.9 hPa Calm   1.6 mph /  2.6 km/h 90 % 0.0 in /  0 mm
21:57 8.3 °F /  -13.2 °C 6.6 °F /  -14.1 °C 1028.0 in /  34808.1 hPa Calm   1.6 mph /  2.6 km/h 89 % 0.0 in /  0 mm
22:02 8.3 °F /  -13.2 °C 6.4 °F /  -14.2 °C 1028.0 in /  34808.1 hPa Calm   1.6 mph /  2.6 km/h 88 % 0.0 in /  0 mm
22:07 8.4 °F /  -13.1 °C 6.5 °F /  -14.2 °C 1028.0 in /  34808.1 hPa Calm   1.6 mph /  2.6 km/h 88 % 0.0 in /  0 mm
22:12 8.2 °F /  -13.2 °C 6.2 °F /  -14.3 °C 1028.0 in /  34808.1 hPa Calm   1.6 mph /  2.6 km/h 87 % 0.0 in /  0 mm
22:17 8.1 °F /  -13.3 °C 6.2 °F /  -14.3 °C 1028.0 in /  34808.1 hPa Calm   1.6 mph /  2.6 km/h 88 % 0.0 in /  0 mm
22:22 8.2 °F /  -13.2 °C 6.5 °F /  -14.2 °C 1028.0 in /  34808.1 hPa Calm   1.6 mph /  2.6 km/h 89 % 0.0 in /  0 mm
22:27 8.4 °F /  -13.1 °C 6.5 °F /  -14.2 °C 1028.0 in /  34808.1 hPa NNW 1.6 mph /  2.6 km/h 1.6 mph /  2.6 km/h 88 % 0.0 in /  0 mm
22:32 8.4 °F /  -13.1 °C 6.5 °F /  -14.2 °C 1028.0 in /  34808.1 hPa Calm   1.6 mph /  2.6 km/h 88 % 0.0 in /  0 mm
22:37 8.3 °F /  -13.2 °C 6.4 °F /  -14.2 °C 1028.0 in /  34808.1 hPa Calm   1.6 mph /  2.6 km/h 88 % 0.0 in /  0 mm
22:42 8.3 °F /  -13.2 °C 6.4 °F /  -14.2 °C 1028.0 in /  34808.1 hPa Calm   1.6 mph /  2.6 km/h 88 % 0.0 in /  0 mm
22:47 8.0 °F /  -13.3 °C 6.0 °F /  -14.4 °C 1028.3 in /  34818.2 hPa Calm   1.6 mph /  2.6 km/h 87 % 0.0 in /  0 mm
22:52 7.7 °F /  -13.5 °C 5.8 °F /  -14.6 °C 1028.3 in /  34818.2 hPa Calm   1.6 mph /  2.6 km/h 88 % 0.0 in /  0 mm
23:02 7.9 °F /  -13.4 °C 6.4 °F /  -14.2 °C 1028.0 in /  34808.1 hPa North 1.6 mph /  2.6 km/h 1.6 mph /  2.6 km/h 90 % 0.0 in /  0 mm
23:07 7.9 °F /  -13.4 °C 6.2 °F /  -14.3 °C 1028.3 in /  34818.2 hPa North 1.6 mph /  2.6 km/h 3.2 mph /  5.1 km/h 89 % 0.0 in /  0 mm
23:12 7.8 °F /  -13.4 °C 6.1 °F /  -14.4 °C 1028.3 in /  34818.2 hPa Calm   3.2 mph /  5.1 km/h 89 % 0.0 in /  0 mm
23:17 7.8 °F /  -13.4 °C 6.1 °F /  -14.4 °C 1028.3 in /  34818.2 hPa Calm   3.2 mph /  5.1 km/h 89 % 0.0 in /  0 mm
23:22 7.7 °F /  -13.5 °C 6.2 °F /  -14.3 °C 1028.3 in /  34818.2 hPa NNW 1.6 mph /  2.6 km/h 1.6 mph /  2.6 km/h 90 % 0.0 in /  0 mm
23:32 7.6 °F /  -13.6 °C 6.1 °F /  -14.4 °C 1028.3 in /  34818.2 hPa Calm   3.2 mph /  5.1 km/h 90 % 0.0 in /  0 mm
23:37 7.6 °F /  -13.6 °C 6.1 °F /  -14.4 °C 1028.3 in /  34818.2 hPa North 1.6 mph /  2.6 km/h 3.2 mph /  5.1 km/h 90 % 0.0 in /  0 mm
23:42 7.6 °F /  -13.6 °C 6.1 °F /  -14.4 °C 1028.3 in /  34818.2 hPa Calm   3.2 mph /  5.1 km/h 90 % 0.0 in /  0 mm
23:47 7.6 °F /  -13.6 °C 6.1 °F /  -14.4 °C 1028.7 in /  34831.8 hPa Calm   1.6 mph /  2.6 km/h 90 % 0.0 in /  0 mm
23:52 7.4 °F /  -13.7 °C 5.9 °F /  -14.5 °C 1028.3 in /  34818.2 hPa Calm   1.6 mph /  2.6 km/h 90 % 0.0 in /  0 mm
23:57 7.4 °F /  -13.7 °C 6.0 °F /  -14.4 °C 1028.7 in /  34831.8 hPa Calm   1.6 mph /  2.6 km/h 91 % 0.0 in /  0 mm
Meteo18
Compliments of Weather Underground - 4 mb

Script developed by  Jim McMurry - jmcmurry@mwt.net Adapted for the template by  Wim van der Kuil - Leuven-Template.eu

You find our weather info also at:

European Weather Network

Weather Underground

Equipment we use:

Weather-station
Davis Vue

Weather-program
Meteobridge

Weather-server
Raspberry PI 2 B+

Provider
1 and 1

Davis Vue

Meteobridge

Raspberry PI 2 B+

1 and 1